Time;durP1;ratioP1;P1;durP2;ratioP2;P2;SDS_P1;SDS_P2;PMS_P1;PMS_P2;Temp;Humidity;BMP_temperature;BMP_pressure;BME280_temperature;BME280_humidity;BME280_pressure;Samples;Min_cycle;Max_cycle;Signal;HPM_P1;HPM_P2
2022/11/18 00:01:43;;;;;;;7.78;2.58;;;;;;;;;;5033840;28;20022;-79
2022/11/18 00:04:09;;;;;;;6.70;2.88;;;;;;;;;;5015959;28;20383;-79
2022/11/18 00:06:36;;;;;;;8.90;2.80;;;;;;;;;;5033938;28;20057;-79
2022/11/18 00:09:02;;;;;;;11.27;2.40;;;;;;;;;;5015587;28;20026;-79
2022/11/18 00:14:18;;;;;;;7.70;2.13;;;;;;;;;;5033781;28;20446;-79
2022/11/18 00:16:45;;;;;;;6.30;2.20;;;;;;;;;;5015665;28;20022;-79
2022/11/18 00:19:11;;;;;;;5.80;2.03;;;;;;;;;;5015339;28;20453;-79
2022/11/18 00:21:37;;;;;;;4.88;2.22;;;;;;;;;;5033366;28;20029;-79
2022/11/18 00:24:03;;;;;;;7.38;2.70;;;;;;;;;;5033606;28;20440;-79
2022/11/18 00:26:29;;;;;;;5.78;2.10;;;;;;;;;;5033366;28;20037;-79
2022/11/18 00:28:55;;;;;;;8.02;3.08;;;;;;;;;;5015721;28;20833;-79
2022/11/18 00:31:21;;;;;;;10.02;2.80;;;;;;;;;;5033290;28;20029;-79
2022/11/18 00:33:47;;;;;;;5.63;2.10;;;;;;;;;;5032989;28;20022;-79
2022/11/18 00:36:13;;;;;;;8.50;2.78;;;;;;;;;;5015664;28;20033;-79
2022/11/18 00:38:39;;;;;;;5.68;1.98;;;;;;;;;;5028605;28;20034;-79
2022/11/18 00:41:07;;;;;;;7.50;2.28;;;;;;;;;;4995781;28;20038;-79
2022/11/18 00:43:33;;;;;;;8.20;2.50;;;;;;;;;;5013377;28;20022;-79
2022/11/18 00:45:59;;;;;;;11.13;2.53;;;;;;;;;;4995623;28;20476;-79
2022/11/18 00:48:25;;;;;;;7.53;2.40;;;;;;;;;;4996066;28;20034;-79
2022/11/18 00:50:52;;;;;;;7.32;2.63;;;;;;;;;;5013197;28;20403;-79
2022/11/18 00:53:18;;;;;;;8.88;2.78;;;;;;;;;;5013322;28;20049;-79
2022/11/18 00:55:44;;;;;;;6.47;2.22;;;;;;;;;;5012103;28;20034;-79
2022/11/18 00:58:13;;;;;;;9.95;2.30;;;;;;;;;;5029185;28;20140;-79
2022/11/18 01:00:44;;;;;;;10.27;2.90;;;;;;;;;;5003924;28;20394;-79
2022/11/18 01:03:10;;;;;;;5.80;2.40;;;;;;;;;;5011928;28;20022;-79
2022/11/18 01:05:37;;;;;;;6.85;2.50;;;;;;;;;;5016718;28;20027;-79
2022/11/18 01:08:04;;;;;;;8.18;1.92;;;;;;;;;;5003301;28;20104;-79
2022/11/18 01:10:30;;;;;;;9.73;2.70;;;;;;;;;;5036344;28;20045;-79
2022/11/18 01:15:41;;;;;;;7.07;2.40;;;;;;;;;;5036198;28;20072;-79
2022/11/18 01:18:07;;;;;;;7.85;2.42;;;;;;;;;;5018541;28;20104;-79
2022/11/18 01:20:34;;;;;;;8.10;2.63;;;;;;;;;;5002287;28;20033;-79
2022/11/18 01:23:00;;;;;;;8.32;2.90;;;;;;;;;;5036006;28;20017;-79
2022/11/18 01:25:27;;;;;;;11.13;3.15;;;;;;;;;;5017985;28;20061;-79
2022/11/18 01:27:53;;;;;;;8.85;3.20;;;;;;;;;;5014764;28;20026;-79
2022/11/18 01:30:19;;;;;;;5.82;2.63;;;;;;;;;;5015832;28;20487;-79
2022/11/18 01:32:45;;;;;;;13.20;3.03;;;;;;;;;;5015796;28;20025;-79
2022/11/18 01:35:11;;;;;;;7.65;3.08;;;;;;;;;;5016035;28;20057;-79
2022/11/18 01:37:38;;;;;;;6.78;2.53;;;;;;;;;;5015988;28;20022;-79
2022/11/18 01:40:05;;;;;;;6.07;2.70;;;;;;;;;;5032129;28;20037;-80
2022/11/18 01:42:31;;;;;;;8.30;2.90;;;;;;;;;;5015886;28;20029;-79
2022/11/18 01:45:01;;;;;;;7.63;2.63;;;;;;;;;;5016620;28;20076;-79
2022/11/18 01:47:29;;;;;;;10.23;2.80;;;;;;;;;;5016543;28;20017;-80
2022/11/18 01:49:58;;;;;;;10.40;3.00;;;;;;;;;;4999297;28;20084;-79
2022/11/18 01:52:24;;;;;;;7.00;2.80;;;;;;;;;;4999818;28;20037;-79
2022/11/18 01:54:54;;;;;;;7.18;3.05;;;;;;;;;;5001437;28;20539;-79
2022/11/18 01:57:21;;;;;;;7.13;2.60;;;;;;;;;;5006430;28;20049;-79
2022/11/18 01:59:49;;;;;;;8.48;2.88;;;;;;;;;;5035489;28;20014;-79
2022/11/18 02:02:15;;;;;;;10.50;2.63;;;;;;;;;;5036163;28;20105;-79
2022/11/18 02:04:44;;;;;;;9.20;2.70;;;;;;;;;;5035962;28;20018;-79
2022/11/18 02:07:10;;;;;;;9.25;3.28;;;;;;;;;;5018114;28;20021;-79
2022/11/18 02:09:36;;;;;;;10.65;3.33;;;;;;;;;;5012262;28;20036;-80
2022/11/18 02:12:03;;;;;;;8.63;2.90;;;;;;;;;;5035726;28;20112;-79
2022/11/18 02:14:30;;;;;;;5.85;2.85;;;;;;;;;;5018269;28;20037;-80
2022/11/18 02:16:59;;;;;;;13.73;3.40;;;;;;;;;;5035527;28;20104;-79
2022/11/18 02:19:43;;;;;;;7.45;2.90;;;;;;;;;;5036073;28;20029;-79
2022/11/18 02:22:28;;;;;;;7.80;2.70;;;;;;;;;;5010682;28;20380;-79
2022/11/18 02:25:03;;;;;;;10.25;3.38;;;;;;;;;;4999858;28;20057;-79
2022/11/18 02:27:29;;;;;;;9.43;3.10;;;;;;;;;;5028113;28;20062;-79
2022/11/18 02:29:58;;;;;;;9.35;3.22;;;;;;;;;;4998122;28;20345;-79
2022/11/18 02:32:32;;;;;;;9.32;3.20;;;;;;;;;;4997995;28;20697;-79
2022/11/18 02:35:19;;;;;;;8.43;3.30;;;;;;;;;;5015473;28;20044;-79
2022/11/18 02:37:50;;;;;;;9.43;3.63;;;;;;;;;;5015477;28;20531;-79
2022/11/18 02:40:22;;;;;;;16.20;3.80;;;;;;;;;;5015536;28;20072;-79
2022/11/18 02:42:52;;;;;;;6.15;2.80;;;;;;;;;;5015411;28;20021;-79
2022/11/18 02:45:18;;;;;;;8.90;3.30;;;;;;;;;;5015472;28;20044;-79
2022/11/18 02:47:46;;;;;;;8.55;3.67;;;;;;;;;;4997703;28;20078;-80
2022/11/18 02:50:14;;;;;;;8.25;3.40;;;;;;;;;;4998056;28;20051;-79
2022/11/18 02:52:41;;;;;;;8.73;3.30;;;;;;;;;;5015138;28;20025;-79
2022/11/18 02:55:09;;;;;;;7.72;3.25;;;;;;;;;;4997944;28;20825;-79
2022/11/18 02:57:35;;;;;;;8.25;3.33;;;;;;;;;;5015013;28;20124;-79
2022/11/18 03:00:02;;;;;;;8.63;3.50;;;;;;;;;;4997670;28;20122;-79
2022/11/18 03:02:28;;;;;;;11.38;3.88;;;;;;;;;;5015204;28;20022;-79
2022/11/18 03:04:56;;;;;;;8.38;3.75;;;;;;;;;;5015109;28;20022;-79
2022/11/18 03:07:24;;;;;;;10.88;4.65;;;;;;;;;;5014965;28;20022;-79
2022/11/18 03:09:52;;;;;;;9.20;3.70;;;;;;;;;;5015155;28;20022;-79
2022/11/18 03:12:18;;;;;;;13.43;3.85;;;;;;;;;;5020118;28;20017;-79
2022/11/18 03:14:50;;;;;;;13.05;3.17;;;;;;;;;;5017254;28;20022;-79
2022/11/18 03:17:22;;;;;;;5.50;3.00;;;;;;;;;;5034593;28;20472;-80
2022/11/18 03:19:51;;;;;;;12.55;3.55;;;;;;;;;;5034323;28;20037;-79
2022/11/18 03:22:22;;;;;;;9.48;3.30;;;;;;;;;;5034252;28;20119;-80
2022/11/18 03:24:55;;;;;;;9.90;3.42;;;;;;;;;;5033997;28;20021;-79
2022/11/18 03:27:25;;;;;;;13.57;3.30;;;;;;;;;;5034331;28;20041;-79
2022/11/18 03:29:59;;;;;;;7.90;3.13;;;;;;;;;;5034367;28;20029;-79
2022/11/18 03:32:29;;;;;;;10.48;3.17;;;;;;;;;;5034336;28;20025;-79
2022/11/18 03:35:00;;;;;;;8.45;2.95;;;;;;;;;;5016522;28;20017;-79
2022/11/18 03:37:28;;;;;;;11.27;4.22;;;;;;;;;;5034447;28;20040;-79
2022/11/18 03:39:57;;;;;;;9.27;3.47;;;;;;;;;;5034456;28;20054;-79
2022/11/18 03:42:49;;;;;;;6.18;3.13;;;;;;;;;;5034084;28;20025;-79
2022/11/18 03:45:19;;;;;;;7.28;3.08;;;;;;;;;;5031953;28;20038;-79
2022/11/18 03:47:50;;;;;;;6.97;3.05;;;;;;;;;;5034074;28;20021;-79
2022/11/18 03:50:20;;;;;;;9.65;3.33;;;;;;;;;;5033746;28;20392;-79
2022/11/18 03:52:47;;;;;;;7.32;3.50;;;;;;;;;;5033810;28;20021;-79
2022/11/18 03:55:17;;;;;;;8.73;3.58;;;;;;;;;;5015970;28;20025;-79
2022/11/18 03:57:46;;;;;;;6.57;3.03;;;;;;;;;;5033709;28;20040;-80
2022/11/18 04:00:13;;;;;;;8.75;3.50;;;;;;;;;;5016030;28;20021;-79
2022/11/18 04:02:40;;;;;;;10.60;3.83;;;;;;;;;;5033637;28;20105;-79
2022/11/18 04:05:09;;;;;;;8.55;3.00;;;;;;;;;;5015938;28;20034;-79
2022/11/18 04:07:38;;;;;;;9.38;3.30;;;;;;;;;;5016171;28;20026;-79
2022/11/18 04:10:04;;;;;;;11.15;4.40;;;;;;;;;;5016113;28;20100;-79
2022/11/18 04:12:32;;;;;;;14.23;3.30;;;;;;;;;;5033730;28;20127;-79
2022/11/18 04:14:59;;;;;;;10.45;3.60;;;;;;;;;;5033606;28;20026;-80
2022/11/18 04:17:27;;;;;;;9.18;3.55;;;;;;;;;;5033511;28;20460;-79
2022/11/18 04:19:53;;;;;;;8.55;3.22;;;;;;;;;;5015686;28;20025;-80
2022/11/18 04:22:19;;;;;;;12.48;2.90;;;;;;;;;;5033424;28;20728;-79
2022/11/18 04:24:45;;;;;;;8.18;3.88;;;;;;;;;;5032690;28;20037;-79
2022/11/18 04:27:11;;;;;;;7.07;3.20;;;;;;;;;;5015574;28;20425;-80
2022/11/18 04:29:38;;;;;;;9.80;3.45;;;;;;;;;;5033432;28;20084;-80
2022/11/18 04:32:04;;;;;;;8.20;3.20;;;;;;;;;;5032379;28;20464;-79
2022/11/18 04:34:30;;;;;;;12.02;3.50;;;;;;;;;;5033284;28;20041;-80
2022/11/18 04:36:57;;;;;;;10.50;3.50;;;;;;;;;;5033288;28;20029;-80
2022/11/18 04:39:23;;;;;;;6.47;2.83;;;;;;;;;;5015393;28;20467;-79
2022/11/18 04:41:55;;;;;;;13.90;3.67;;;;;;;;;;5033119;28;20079;-79
2022/11/18 04:44:31;;;;;;;6.90;3.50;;;;;;;;;;5015464;28;20450;-79
2022/11/18 04:46:58;;;;;;;10.55;3.58;;;;;;;;;;5015290;28;20034;-79
2022/11/18 04:49:25;;;;;;;8.30;3.40;;;;;;;;;;5015302;28;20026;-80
2022/11/18 04:51:51;;;;;;;8.32;3.35;;;;;;;;;;4996769;28;20046;-79
2022/11/18 04:54:18;;;;;;;11.23;3.85;;;;;;;;;;4992583;28;20049;-79
2022/11/18 04:56:44;;;;;;;10.40;3.65;;;;;;;;;;4992522;28;20137;-79
2022/11/18 04:59:11;;;;;;;9.05;3.50;;;;;;;;;;4992167;28;20038;-79
2022/11/18 05:01:37;;;;;;;10.82;3.97;;;;;;;;;;4992501;28;20023;-79
2022/11/18 05:04:04;;;;;;;12.52;3.83;;;;;;;;;;4992385;28;20019;-80
2022/11/18 05:06:30;;;;;;;8.68;3.22;;;;;;;;;;4993767;28;20022;-79
2022/11/18 05:08:57;;;;;;;12.63;3.47;;;;;;;;;;4992332;28;20061;-79
2022/11/18 05:14:07;;;;;;;12.95;4.25;;;;;;;;;;4992865;28;20098;-79
2022/11/18 05:16:33;;;;;;;11.23;4.32;;;;;;;;;;4993763;28;20049;-79
2022/11/18 05:19:01;;;;;;;12.85;4.35;;;;;;;;;;4992383;28;20026;-79
2022/11/18 05:21:27;;;;;;;10.57;5.28;;;;;;;;;;4993561;28;20077;-79
2022/11/18 05:23:53;;;;;;;10.90;5.20;;;;;;;;;;4992301;28;20042;-79
2022/11/18 05:26:19;;;;;;;12.27;5.00;;;;;;;;;;4991448;28;20088;-79
2022/11/18 05:28:45;;;;;;;10.18;5.15;;;;;;;;;;4992358;28;20030;-79
2022/11/18 05:31:15;;;;;;;16.27;5.30;;;;;;;;;;4993484;28;20035;-79
2022/11/18 05:33:42;;;;;;;17.05;5.22;;;;;;;;;;4992157;28;20061;-79
2022/11/18 05:36:10;;;;;;;12.90;5.40;;;;;;;;;;4989371;28;20027;-79
2022/11/18 05:38:36;;;;;;;19.35;4.85;;;;;;;;;;4974003;28;20370;-80
2022/11/18 05:41:02;;;;;;;10.07;4.45;;;;;;;;;;4973087;28;20390;-79
2022/11/18 05:43:30;;;;;;;14.10;4.68;;;;;;;;;;4973716;28;20027;-79
2022/11/18 05:45:56;;;;;;;14.77;4.95;;;;;;;;;;4990660;28;20018;-79
2022/11/18 05:48:22;;;;;;;14.00;4.90;;;;;;;;;;4996410;28;20053;-79
2022/11/18 05:50:49;;;;;;;13.20;5.03;;;;;;;;;;5008513;28;20041;-79
2022/11/18 05:53:15;;;;;;;12.05;5.30;;;;;;;;;;5021790;28;20022;-79
2022/11/18 05:55:51;;;;;;;14.77;5.00;;;;;;;;;;5016069;28;20022;-80
2022/11/18 05:58:17;;;;;;;10.18;5.13;;;;;;;;;;5024518;28;20493;-79
2022/11/18 06:00:45;;;;;;;14.07;5.40;;;;;;;;;;5035835;28;20025;-79
2022/11/18 06:03:22;;;;;;;15.27;5.65;;;;;;;;;;5036016;28;20075;-79
2022/11/18 06:05:48;;;;;;;11.32;4.93;;;;;;;;;;5018237;28;20048;-79
2022/11/18 06:08:17;;;;;;;12.05;5.22;;;;;;;;;;5031127;28;20037;-79
2022/11/18 06:10:44;;;;;;;14.77;5.80;;;;;;;;;;4998412;28;20498;-80
2022/11/18 06:13:12;;;;;;;14.95;5.30;;;;;;;;;;5028573;28;20025;-79
2022/11/18 06:15:40;;;;;;;14.40;5.45;;;;;;;;;;5014566;28;20052;-79
2022/11/18 06:18:08;;;;;;;16.13;5.65;;;;;;;;;;5015895;28;20125;-79
2022/11/18 06:20:35;;;;;;;13.27;5.90;;;;;;;;;;5015784;28;20026;-80
2022/11/18 06:23:01;;;;;;;13.70;5.20;;;;;;;;;;5026541;28;20025;-79
2022/11/18 06:25:28;;;;;;;16.13;5.25;;;;;;;;;;5031239;28;20075;-79
2022/11/18 06:27:56;;;;;;;12.43;5.75;;;;;;;;;;5013868;28;20460;-80
2022/11/18 06:30:22;;;;;;;15.57;5.30;;;;;;;;;;5028718;28;20388;-79
2022/11/18 06:32:48;;;;;;;16.33;6.03;;;;;;;;;;5026162;28;20057;-79
2022/11/18 06:35:14;;;;;;;11.93;5.63;;;;;;;;;;5028655;28;20029;-79
2022/11/18 06:37:40;;;;;;;16.48;6.28;;;;;;;;;;5017328;28;20021;-79
2022/11/18 06:40:07;;;;;;;16.30;6.20;;;;;;;;;;5034962;28;20462;-80
2022/11/18 06:45:17;;;;;;;13.82;7.22;;;;;;;;;;5015265;28;20037;-79
2022/11/18 06:47:43;;;;;;;21.73;6.88;;;;;;;;;;5013928;28;20041;-79
2022/11/18 06:50:09;;;;;;;15.48;6.22;;;;;;;;;;5013451;28;20030;-80
2022/11/18 06:52:36;;;;;;;13.43;6.45;;;;;;;;;;5013866;28;20045;-79
2022/11/18 06:55:05;;;;;;;17.52;7.28;;;;;;;;;;5012701;28;20399;-79
2022/11/18 06:57:31;;;;;;;17.10;6.65;;;;;;;;;;4998116;28;20033;-79
2022/11/18 06:59:57;;;;;;;14.07;5.80;;;;;;;;;;5013757;28;20522;-79
2022/11/18 07:02:23;;;;;;;16.98;6.63;;;;;;;;;;5014963;28;20369;-79
2022/11/18 07:04:49;;;;;;;20.70;7.03;;;;;;;;;;5014915;28;20025;-79
2022/11/18 07:07:15;;;;;;;23.98;7.00;;;;;;;;;;5014949;28;20022;-79
2022/11/18 07:09:41;;;;;;;17.30;6.40;;;;;;;;;;4997532;28;20029;-79
2022/11/18 07:12:07;;;;;;;14.77;6.25;;;;;;;;;;5017359;28;20029;-79
2022/11/18 07:14:33;;;;;;;14.63;6.35;;;;;;;;;;5028684;28;20388;-79
2022/11/18 07:16:59;;;;;;;17.95;6.78;;;;;;;;;;4997225;28;20026;-79
2022/11/18 07:19:25;;;;;;;19.92;6.97;;;;;;;;;;4997149;28;20448;-79
2022/11/18 07:21:51;;;;;;;22.95;7.53;;;;;;;;;;4997353;28;20037;-79
2022/11/18 07:24:17;;;;;;;22.30;8.52;;;;;;;;;;4997384;28;20038;-80
2022/11/18 07:26:43;;;;;;;13.25;6.22;;;;;;;;;;5014844;28;20036;-79
2022/11/18 07:29:10;;;;;;;15.02;5.75;;;;;;;;;;5016863;28;20037;-79
2022/11/18 07:31:38;;;;;;;14.00;5.10;;;;;;;;;;5025627;28;20475;-79
2022/11/18 07:34:04;;;;;;;15.18;5.70;;;;;;;;;;5014641;28;20030;-79
2022/11/18 07:36:30;;;;;;;15.80;6.40;;;;;;;;;;5024991;28;20030;-79
2022/11/18 07:38:58;;;;;;;17.13;5.75;;;;;;;;;;5010105;28;20034;-79
2022/11/18 07:41:26;;;;;;;10.98;5.63;;;;;;;;;;5014288;28;20022;-79
2022/11/18 07:43:53;;;;;;;13.15;6.10;;;;;;;;;;5026214;28;20029;-79
2022/11/18 07:46:19;;;;;;;13.40;5.38;;;;;;;;;;5016192;28;20022;-79
2022/11/18 07:48:46;;;;;;;12.57;5.90;;;;;;;;;;5016079;28;20551;-80
2022/11/18 07:51:13;;;;;;;19.13;6.93;;;;;;;;;;5002644;28;20046;-79
2022/11/18 07:53:39;;;;;;;13.40;6.22;;;;;;;;;;4980529;28;20031;-79
2022/11/18 07:56:06;;;;;;;17.75;5.95;;;;;;;;;;4985408;28;20023;-79
2022/11/18 07:58:32;;;;;;;16.60;5.93;;;;;;;;;;4985227;28;20030;-79
2022/11/18 08:00:58;;;;;;;16.40;6.32;;;;;;;;;;4989549;28;20105;-79
2022/11/18 08:03:25;;;;;;;12.70;5.85;;;;;;;;;;4980492;28;20015;-79
2022/11/18 08:05:51;;;;;;;15.63;6.00;;;;;;;;;;4987588;28;20037;-79
2022/11/18 08:08:17;;;;;;;13.32;5.90;;;;;;;;;;4988996;28;20023;-79
2022/11/18 08:10:43;;;;;;;14.70;5.90;;;;;;;;;;4984586;28;20508;-79
2022/11/18 08:13:09;;;;;;;18.30;6.82;;;;;;;;;;4985367;28;20469;-79
2022/11/18 08:15:39;;;;;;;18.58;5.68;;;;;;;;;;4972381;28;20388;-79
2022/11/18 08:18:05;;;;;;;14.18;5.60;;;;;;;;;;4980473;28;20473;-79
2022/11/18 08:20:33;;;;;;;18.92;6.13;;;;;;;;;;4986857;28;20026;-79
2022/11/18 08:22:59;;;;;;;18.15;5.68;;;;;;;;;;4984940;28;20027;-79
2022/11/18 08:25:25;;;;;;;18.15;5.55;;;;;;;;;;4987113;28;20031;-79
2022/11/18 08:27:51;;;;;;;16.17;5.97;;;;;;;;;;4992679;28;20031;-79
2022/11/18 08:30:17;;;;;;;13.32;6.13;;;;;;;;;;4994339;28;20037;-79
2022/11/18 08:32:43;;;;;;;13.65;5.88;;;;;;;;;;4994078;28;20045;-79
2022/11/18 08:35:09;;;;;;;15.52;5.63;;;;;;;;;;4992283;28;20068;-79
2022/11/18 08:37:36;;;;;;;9.68;5.10;;;;;;;;;;4974750;28;20437;-79
2022/11/18 08:40:02;;;;;;;13.68;5.15;;;;;;;;;;4974900;28;20019;-79
2022/11/18 08:42:28;;;;;;;10.48;5.03;;;;;;;;;;4974919;28;20037;-79
2022/11/18 08:44:54;;;;;;;13.02;5.00;;;;;;;;;;4974954;28;20073;-79
2022/11/18 08:47:20;;;;;;;9.23;4.90;;;;;;;;;;4989559;28;20023;-79
2022/11/18 08:49:47;;;;;;;11.32;4.88;;;;;;;;;;4989232;28;20034;-80
2022/11/18 08:52:13;;;;;;;10.00;4.70;;;;;;;;;;5010137;28;20046;-79
2022/11/18 08:54:39;;;;;;;12.35;4.97;;;;;;;;;;4995866;28;20038;-80
2022/11/18 08:57:05;;;;;;;19.52;5.82;;;;;;;;;;4979464;28;20034;-79
2022/11/18 08:59:31;;;;;;;16.70;4.97;;;;;;;;;;4979503;28;20026;-79
2022/11/18 09:01:57;;;;;;;13.25;5.40;;;;;;;;;;5013330;28;20033;-80
2022/11/18 09:04:23;;;;;;;12.63;5.10;;;;;;;;;;5013891;28;20037;-79
2022/11/18 09:06:49;;;;;;;11.38;5.25;;;;;;;;;;4980157;28;20037;-79
2022/11/18 09:09:15;;;;;;;17.13;5.10;;;;;;;;;;5003587;28;20037;-79
2022/11/18 09:11:42;;;;;;;9.65;4.40;;;;;;;;;;5032454;28;20021;-81
2022/11/18 09:14:10;;;;;;;12.00;4.88;;;;;;;;;;4995563;28;20483;-81
2022/11/18 09:16:36;;;;;;;11.02;4.30;;;;;;;;;;5013198;28;20037;-81
2022/11/18 09:19:02;;;;;;;8.52;3.60;;;;;;;;;;5014683;28;20481;-81
2022/11/18 09:21:29;;;;;;;12.93;4.50;;;;;;;;;;4999138;28;20052;-82
2022/11/18 09:23:55;;;;;;;25.83;5.70;;;;;;;;;;5016646;28;20038;-82
2022/11/18 09:26:22;;;;;;;10.63;5.25;;;;;;;;;;5014738;28;20472;-81
2022/11/18 09:28:48;;;;;;;11.32;4.38;;;;;;;;;;5036504;28;20048;-82
2022/11/18 09:31:16;;;;;;;11.60;4.40;;;;;;;;;;5036506;28;20120;-81
2022/11/18 09:33:42;;;;;;;12.77;4.85;;;;;;;;;;5036595;28;20360;-81
2022/11/18 09:36:17;;;;;;;8.95;4.72;;;;;;;;;;5018739;28;20559;-81
2022/11/18 09:38:43;;;;;;;10.25;4.38;;;;;;;;;;5036281;28;20029;-81
2022/11/18 09:41:09;;;;;;;13.48;4.30;;;;;;;;;;5019541;28;20112;-81
2022/11/18 09:43:53;;;;;;;9.40;4.30;;;;;;;;;;5037416;28;20072;-81
2022/11/18 09:46:23;;;;;;;15.18;5.15;;;;;;;;;;5036341;28;20017;-82
2022/11/18 09:51:37;;;;;;;11.32;4.57;;;;;;;;;;5036242;28;20048;-81
2022/11/18 09:54:03;;;;;;;10.65;4.43;;;;;;;;;;5036045;28;20026;-81
2022/11/18 09:56:29;;;;;;;11.93;4.88;;;;;;;;;;5018650;28;20061;-81
2022/11/18 09:58:56;;;;;;;15.20;4.90;;;;;;;;;;5035892;28;20037;-82
2022/11/18 10:01:22;;;;;;;7.88;4.55;;;;;;;;;;5052604;28;20041;-80
2022/11/18 10:03:49;;;;;;;8.68;4.65;;;;;;;;;;5029919;28;20029;-80
2022/11/18 10:06:24;;;;;;;12.68;4.93;;;;;;;;;;5018620;28;20040;-79
2022/11/18 10:09:01;;;;;;;9.15;4.80;;;;;;;;;;5036071;28;20033;-81
2022/11/18 10:11:45;;;;;;;10.68;5.05;;;;;;;;;;5035869;28;20383;-81
2022/11/18 10:14:11;;;;;;;11.50;4.57;;;;;;;;;;5024376;28;20028;-81
2022/11/18 10:16:38;;;;;;;8.77;4.03;;;;;;;;;;5036057;28;20109;-81
2022/11/18 10:19:04;;;;;;;12.10;4.55;;;;;;;;;;5035707;28;20060;-81
2022/11/18 10:21:33;;;;;;;8.93;4.38;;;;;;;;;;5024774;28;20354;-83
2022/11/18 10:24:01;;;;;;;11.90;4.18;;;;;;;;;;4998217;28;20034;-81
2022/11/18 10:26:38;;;;;;;15.00;4.45;;;;;;;;;;5014666;28;20112;-80
2022/11/18 10:29:08;;;;;;;9.77;4.75;;;;;;;;;;5015559;28;20029;-81
2022/11/18 10:31:39;;;;;;;12.95;4.40;;;;;;;;;;5014640;28;20377;-82
2022/11/18 10:34:05;;;;;;;8.90;4.00;;;;;;;;;;5027963;28;20021;-81
2022/11/18 10:36:33;;;;;;;16.02;5.05;;;;;;;;;;5015642;28;20034;-81
2022/11/18 10:39:13;;;;;;;8.27;4.00;;;;;;;;;;5015407;28;20445;-81
2022/11/18 10:41:41;;;;;;;12.75;3.75;;;;;;;;;;4998074;28;20076;-81
2022/11/18 10:44:26;;;;;;;8.43;3.50;;;;;;;;;;4998942;28;20022;-81
2022/11/18 10:46:52;;;;;;;7.57;3.45;;;;;;;;;;5035322;28;20014;-81
2022/11/18 10:49:18;;;;;;;11.32;3.70;;;;;;;;;;5035231;28;20021;-81
2022/11/18 10:51:49;;;;;;;8.25;3.28;;;;;;;;;;5035037;28;20053;-81
2022/11/18 10:54:17;;;;;;;8.73;4.07;;;;;;;;;;5016948;28;20120;-81
2022/11/18 10:56:47;;;;;;;12.93;3.72;;;;;;;;;;5020772;28;20022;-81
2022/11/18 10:59:19;;;;;;;9.75;3.28;;;;;;;;;;4996862;28;20059;-81
2022/11/18 11:01:56;;;;;;;17.92;3.47;;;;;;;;;;5017679;28;20028;-82
2022/11/18 11:04:26;;;;;;;13.68;3.78;;;;;;;;;;5020797;28;20069;-81
2022/11/18 11:06:52;;;;;;;10.95;3.28;;;;;;;;;;5035891;28;20080;-81
2022/11/18 11:09:27;;;;;;;12.73;3.47;;;;;;;;;;5035160;28;20096;-81
2022/11/18 11:11:59;;;;;;;7.10;3.58;;;;;;;;;;5016872;28;20033;-80
2022/11/18 11:14:59;;;;;;;9.68;3.58;;;;;;;;;;5031001;28;20140;-80
2022/11/18 11:17:28;;;;;;;8.50;3.45;;;;;;;;;;5008241;28;20083;-80
2022/11/18 11:20:10;;;;;;;14.57;3.90;;;;;;;;;;5016044;28;20357;-80
2022/11/18 11:22:36;;;;;;;12.15;3.85;;;;;;;;;;5000459;28;20447;-81
2022/11/18 11:25:05;;;;;;;9.32;3.67;;;;;;;;;;5016301;28;20033;-80
2022/11/18 11:27:34;;;;;;;12.60;3.53;;;;;;;;;;5008590;28;20022;-80
2022/11/18 11:30:04;;;;;;;12.13;3.67;;;;;;;;;;5014253;28;20026;-80
2022/11/18 11:32:48;;;;;;;10.63;3.70;;;;;;;;;;5028449;28;20414;-80
2022/11/18 11:35:19;;;;;;;8.07;3.33;;;;;;;;;;5014209;28;20026;-80
2022/11/18 11:37:59;;;;;;;11.05;3.72;;;;;;;;;;5010642;28;20048;-80
2022/11/18 11:40:33;;;;;;;9.75;3.47;;;;;;;;;;5016350;28;20025;-80
2022/11/18 11:43:05;;;;;;;10.32;3.45;;;;;;;;;;5033197;28;20033;-80
2022/11/18 11:45:38;;;;;;;12.63;3.75;;;;;;;;;;5016488;28;20026;-81
2022/11/18 11:48:17;;;;;;;10.02;3.45;;;;;;;;;;5007440;28;20030;-81
2022/11/18 11:50:55;;;;;;;8.05;3.65;;;;;;;;;;5025592;28;20046;-82
2022/11/18 11:53:24;;;;;;;16.48;4.13;;;;;;;;;;5025165;28;20030;-83
2022/11/18 11:55:50;;;;;;;8.98;3.78;;;;;;;;;;5025065;28;20022;-82
2022/11/18 11:58:29;;;;;;;7.47;3.80;;;;;;;;;;5016118;28;20461;-82
2022/11/18 12:01:13;;;;;;;11.38;3.88;;;;;;;;;;5034342;28;20049;-84
2022/11/18 12:03:42;;;;;;;12.57;4.30;;;;;;;;;;5026176;28;20124;-83
2022/11/18 12:06:09;;;;;;;13.80;4.80;;;;;;;;;;5014090;28;20025;-82
2022/11/18 12:08:37;;;;;;;13.07;3.60;;;;;;;;;;5013769;28;20042;-82
2022/11/18 12:11:11;;;;;;;7.75;3.38;;;;;;;;;;4995591;28;20767;-81
2022/11/18 12:13:47;;;;;;;9.43;3.30;;;;;;;;;;5008747;28;20021;-82
2022/11/18 12:16:32;;;;;;;13.15;4.18;;;;;;;;;;5013771;28;20024;-82
2022/11/18 12:18:58;;;;;;;8.98;3.40;;;;;;;;;;5013679;28;20030;-82
2022/11/18 12:21:46;;;;;;;10.57;3.20;;;;;;;;;;5012560;28;20021;-83
2022/11/18 12:24:32;;;;;;;7.63;2.92;;;;;;;;;;5012424;28;20049;-81
2022/11/18 12:27:02;;;;;;;10.52;3.58;;;;;;;;;;5013535;28;20026;-82
2022/11/18 12:29:36;;;;;;;8.02;3.35;;;;;;;;;;5013771;28;20025;-82
2022/11/18 12:32:02;;;;;;;10.40;3.00;;;;;;;;;;5013535;28;20017;-81
2022/11/18 12:34:42;;;;;;;10.27;3.75;;;;;;;;;;5013592;28;20033;-81
2022/11/18 12:37:23;;;;;;;13.77;3.97;;;;;;;;;;4995744;28;20436;-82
2022/11/18 12:39:58;;;;;;;9.68;4.03;;;;;;;;;;5013541;28;20030;-82
2022/11/18 12:45:40;;;;;;;10.95;4.55;;;;;;;;;;5033080;28;20037;-82
2022/11/18 12:48:25;;;;;;;10.27;5.10;;;;;;;;;;5015468;28;20025;-82
2022/11/18 12:50:52;;;;;;;12.93;4.22;;;;;;;;;;5015375;28;20432;-82
2022/11/18 12:53:27;;;;;;;8.85;4.20;;;;;;;;;;5032145;28;20376;-82
2022/11/18 12:55:53;;;;;;;7.30;3.97;;;;;;;;;;5033165;28;20026;-81
2022/11/18 12:58:23;;;;;;;8.73;3.97;;;;;;;;;;5033029;28;20041;-82
2022/11/18 13:00:52;;;;;;;13.25;4.43;;;;;;;;;;5033032;28;20531;-82
2022/11/18 13:03:23;;;;;;;14.82;4.93;;;;;;;;;;5032927;28;20539;-81
2022/11/18 13:05:49;;;;;;;23.20;4.50;;;;;;;;;;5033032;28;20020;-82
2022/11/18 13:08:17;;;;;;;14.68;4.40;;;;;;;;;;5032806;28;20033;-82
2022/11/18 13:10:44;;;;;;;9.68;4.28;;;;;;;;;;5032797;28;20501;-82
2022/11/18 13:13:20;;;;;;;11.40;5.20;;;;;;;;;;5032774;28;20476;-82
2022/11/18 13:18:33;;;;;;;9.32;4.45;;;;;;;;;;4992416;28;20125;-82
2022/11/18 13:23:51;;;;;;;9.77;4.10;;;;;;;;;;5013475;28;20538;-82
2022/11/18 13:26:27;;;;;;;13.98;4.88;;;;;;;;;;5028294;28;20108;-82
2022/11/18 13:29:07;;;;;;;11.52;4.05;;;;;;;;;;5013274;28;20034;-82
2022/11/18 13:31:33;;;;;;;8.90;3.40;;;;;;;;;;5013070;28;20022;-82
2022/11/18 13:34:03;;;;;;;11.07;3.65;;;;;;;;;;4995294;28;20080;-81
2022/11/18 13:36:31;;;;;;;12.57;4.15;;;;;;;;;;5013069;28;20029;-82
2022/11/18 13:38:58;;;;;;;13.23;4.45;;;;;;;;;;5012895;28;20092;-82
2022/11/18 13:41:31;;;;;;;12.85;5.43;;;;;;;;;;5012976;28;20093;-82
2022/11/18 13:44:09;;;;;;;17.92;5.55;;;;;;;;;;4995281;28;20060;-82
2022/11/18 13:46:36;;;;;;;28.58;13.32;;;;;;;;;;5012877;28;20500;-82
2022/11/18 13:49:02;;;;;;;46.97;20.58;;;;;;;;;;5012844;28;20042;-82
2022/11/18 13:51:29;;;;;;;38.85;17.10;;;;;;;;;;5012644;28;20341;-81
2022/11/18 13:53:55;;;;;;;33.83;12.95;;;;;;;;;;5012951;28;20038;-82
2022/11/18 13:56:21;;;;;;;15.85;8.15;;;;;;;;;;5012714;28;20076;-82
2022/11/18 13:58:50;;;;;;;22.27;7.55;;;;;;;;;;5012690;28;20037;-82
2022/11/18 14:01:16;;;;;;;15.60;5.25;;;;;;;;;;5012836;28;20022;-82
2022/11/18 14:03:49;;;;;;;13.45;4.90;;;;;;;;;;4995097;28;20030;-82
2022/11/18 14:06:32;;;;;;;13.30;5.65;;;;;;;;;;5016172;28;20500;-82
2022/11/18 14:09:27;;;;;;;11.40;5.60;;;;;;;;;;5016059;28;20030;-82
2022/11/18 14:12:00;;;;;;;13.70;4.90;;;;;;;;;;5005105;28;20034;-82
2022/11/18 14:14:27;;;;;;;8.52;4.88;;;;;;;;;;5035915;28;20032;-82
2022/11/18 14:16:58;;;;;;;15.82;5.22;;;;;;;;;;5035742;28;20468;-82
2022/11/18 14:19:32;;;;;;;11.52;5.55;;;;;;;;;;5035651;28;20444;-82
2022/11/18 14:22:05;;;;;;;19.02;5.90;;;;;;;;;;5035711;28;20033;-82
2022/11/18 14:24:31;;;;;;;10.38;5.10;;;;;;;;;;5035367;28;20034;-82
2022/11/18 14:26:57;;;;;;;9.50;5.70;;;;;;;;;;5017802;28;20117;-82
2022/11/18 14:29:23;;;;;;;12.55;5.72;;;;;;;;;;5035441;28;20075;-82
2022/11/18 14:32:08;;;;;;;20.08;6.10;;;;;;;;;;5035614;28;20029;-82
2022/11/18 14:34:34;;;;;;;11.98;5.70;;;;;;;;;;5017605;28;20348;-82
2022/11/18 14:37:00;;;;;;;11.68;6.00;;;;;;;;;;5035470;28;20491;-82
2022/11/18 14:39:31;;;;;;;16.38;5.35;;;;;;;;;;5001283;28;20553;-82
2022/11/18 14:41:57;;;;;;;16.73;6.32;;;;;;;;;;5035325;28;20025;-82
2022/11/18 14:44:27;;;;;;;16.00;6.00;;;;;;;;;;5019819;28;20079;-82
2022/11/18 14:47:01;;;;;;;16.35;6.05;;;;;;;;;;5015432;28;20026;-82
2022/11/18 14:49:30;;;;;;;12.77;7.18;;;;;;;;;;5015276;28;20025;-82
2022/11/18 14:51:56;;;;;;;15.35;6.50;;;;;;;;;;4998152;28;20056;-82
2022/11/18 14:54:26;;;;;;;20.45;8.05;;;;;;;;;;5015277;28;20041;-82
2022/11/18 14:56:54;;;;;;;19.08;9.05;;;;;;;;;;5015205;28;20093;-82
2022/11/18 14:59:20;;;;;;;13.32;7.68;;;;;;;;;;5015037;28;20041;-82
2022/11/18 15:01:46;;;;;;;17.95;8.18;;;;;;;;;;5015094;28;20026;-82
2022/11/18 15:04:13;;;;;;;23.65;8.30;;;;;;;;;;5013728;28;20022;-82
2022/11/18 15:06:39;;;;;;;20.05;9.18;;;;;;;;;;4997696;28;20042;-82